createdAt,value
2019-03-26T00:01:21.612Z,19.40
2019-03-26T00:28:19.761Z,19.30
2019-03-26T00:41:26.972Z,19.30
2019-03-26T00:54:34.331Z,19.40
2019-03-26T01:07:41.522Z,19.30
2019-03-26T01:20:48.735Z,19.30
2019-03-26T01:34:12.171Z,19.40
2019-03-26T01:47:35.023Z,19.40
2019-03-26T02:00:57.808Z,19.50
2019-03-26T02:14:20.633Z,19.50
2019-03-26T02:27:43.417Z,19.40
2019-03-26T02:41:06.247Z,19.40
2019-03-26T02:54:29.094Z,19.40
2019-03-26T03:07:51.901Z,19.50
2019-03-26T03:21:14.715Z,19.50
2019-03-26T03:34:37.547Z,19.50
2019-03-26T03:48:00.325Z,19.50
2019-03-26T04:01:23.135Z,19.50
2019-03-26T04:14:45.954Z,19.50
2019-03-26T04:28:08.764Z,19.50
2019-03-26T04:41:31.574Z,19.50
2019-03-26T04:54:54.410Z,19.40
2019-03-26T05:08:17.269Z,19.50
2019-03-26T05:21:40.077Z,19.50
2019-03-26T05:35:02.858Z,19.50
2019-03-26T05:48:25.680Z,18.50
2019-03-26T06:01:48.495Z,17.20
2019-03-26T06:15:11.424Z,16.40
2019-03-26T06:28:34.118Z,16.40
2019-03-26T06:41:56.914Z,18.30
2019-03-26T06:55:19.771Z,18.80
2019-03-26T07:08:42.606Z,19.30
2019-03-26T07:22:05.362Z,19.30
2019-03-26T07:35:28.183Z,19.40
2019-03-26T07:48:51.010Z,19.40
2019-03-26T08:02:13.867Z,19.40
2019-03-26T08:15:36.638Z,19.40
2019-03-26T08:29:00.892Z,19.20
2019-03-26T08:42:22.283Z,19.20
2019-03-26T08:55:45.083Z,19.10
2019-03-26T09:09:07.901Z,19.00
2019-03-26T09:22:30.747Z,18.80
2019-03-26T09:35:53.554Z,18.70
2019-03-26T09:49:16.368Z,18.60
2019-03-26T10:15:40.810Z,18.60
2019-03-26T10:28:48.046Z,18.60
2019-03-26T10:41:55.327Z,19.00
2019-03-26T10:55:02.544Z,19.00
2019-03-26T11:08:09.741Z,19.00
2019-03-26T11:21:16.939Z,19.00
2019-03-26T11:34:40.576Z,19.00
2019-03-26T11:48:03.879Z,19.00
2019-03-26T12:01:26.215Z,19.10
2019-03-26T12:27:50.683Z,19.10
2019-03-26T12:40:57.925Z,19.30
2019-03-26T12:54:05.118Z,19.40
2019-03-26T13:07:12.340Z,19.30
2019-03-26T13:20:19.585Z,19.20
2019-03-26T13:47:39.582Z,19.20
2019-03-26T14:01:02.414Z,19.20
2019-03-26T14:27:27.017Z,19.30
2019-03-26T14:40:34.229Z,19.20
2019-03-26T14:53:41.401Z,19.30
2019-03-26T15:06:48.590Z,19.60
2019-03-26T15:19:55.813Z,19.60
2019-03-26T15:33:02.973Z,19.90
2019-03-26T15:46:26.613Z,20.00
2019-03-26T15:59:49.453Z,19.70
2019-03-26T16:13:12.250Z,19.70
2019-03-26T16:39:36.674Z,19.70
2019-03-26T16:52:43.839Z,19.70
2019-03-26T17:05:51.035Z,19.70
2019-03-26T17:32:02.396Z,19.60
2019-03-26T17:45:09.603Z,19.60
2019-03-26T17:58:16.892Z,19.50
2019-03-26T18:11:24.062Z,18.40
2019-03-26T18:24:31.249Z,19.00
2019-03-26T18:37:38.498Z,17.70
2019-03-26T18:51:02.209Z,17.80
2019-03-26T19:30:33.202Z,19.20
2019-03-26T19:43:40.405Z,19.20
2019-03-26T20:09:52.464Z,19.20
2019-03-26T20:22:59.786Z,19.20
2019-03-26T20:36:07.042Z,19.20
2019-03-26T21:02:18.087Z,18.90
2019-03-26T21:15:25.282Z,19.20
2019-03-26T21:28:32.571Z,19.20
2019-03-26T21:41:39.713Z,19.20
2019-03-26T21:54:46.917Z,19.20
2019-03-26T22:07:54.159Z,19.20
2019-03-26T22:21:17.845Z,19.20
2019-03-26T22:34:40.712Z,19.10
2019-03-26T22:47:58.621Z,19.20
2019-03-26T23:01:05.851Z,19.10
2019-03-26T23:14:13.046Z,19.20
2019-03-26T23:27:20.269Z,19.20
2019-03-26T23:40:27.426Z,19.10
2019-03-26T23:53:34.617Z,19.20
